sensor_id;sensor_type;location;lat;lon;timestamp;P1;durP1;ratioP1;P2;durP2;ratioP2
25950;SDS011;13748;52.240;6.002;2022-10-29T00:00:54;24.57;;;9.10;;
25950;SDS011;13748;52.240;6.002;2022-10-29T00:03:22;29.43;;;8.90;;
25950;SDS011;13748;52.240;6.002;2022-10-29T00:06:08;25.93;;;8.40;;
25950;SDS011;13748;52.240;6.002;2022-10-29T00:08:38;22.07;;;8.60;;
25950;SDS011;13748;52.240;6.002;2022-10-29T00:11:11;20.47;;;7.90;;
25950;SDS011;13748;52.240;6.002;2022-10-29T00:13:41;21.93;;;9.33;;
25950;SDS011;13748;52.240;6.002;2022-10-29T00:16:15;25.00;;;9.53;;
25950;SDS011;13748;52.240;6.002;2022-10-29T00:18:46;24.73;;;8.23;;
25950;SDS011;13748;52.240;6.002;2022-10-29T00:21:14;24.33;;;9.53;;
25950;SDS011;13748;52.240;6.002;2022-10-29T00:23:45;30.17;;;10.67;;
25950;SDS011;13748;52.240;6.002;2022-10-29T00:26:12;36.33;;;10.00;;
25950;SDS011;13748;52.240;6.002;2022-10-29T00:28:39;27.73;;;11.60;;
25950;SDS011;13748;52.240;6.002;2022-10-29T00:31:09;35.73;;;10.23;;
25950;SDS011;13748;52.240;6.002;2022-10-29T00:33:38;24.57;;;8.97;;
25950;SDS011;13748;52.240;6.002;2022-10-29T00:36:19;26.03;;;9.10;;
25950;SDS011;13748;52.240;6.002;2022-10-29T00:38:50;29.63;;;10.20;;
25950;SDS011;13748;52.240;6.002;2022-10-29T00:41:19;28.63;;;10.80;;
25950;SDS011;13748;52.240;6.002;2022-10-29T00:46:40;29.80;;;9.50;;
25950;SDS011;13748;52.240;6.002;2022-10-29T00:49:11;38.33;;;11.50;;
25950;SDS011;13748;52.240;6.002;2022-10-29T00:51:39;31.53;;;10.20;;
25950;SDS011;13748;52.240;6.002;2022-10-29T00:54:10;33.97;;;10.40;;
25950;SDS011;13748;52.240;6.002;2022-10-29T00:57:13;28.43;;;9.20;;
25950;SDS011;13748;52.240;6.002;2022-10-29T00:59:36;29.13;;;9.87;;
25950;SDS011;13748;52.240;6.002;2022-10-29T01:02:02;32.60;;;9.20;;
25950;SDS011;13748;52.240;6.002;2022-10-29T01:04:30;36.57;;;9.80;;
25950;SDS011;13748;52.240;6.002;2022-10-29T01:07:03;29.20;;;9.43;;
25950;SDS011;13748;52.240;6.002;2022-10-29T01:09:46;35.70;;;10.17;;
25950;SDS011;13748;52.240;6.002;2022-10-29T01:17:50;30.43;;;11.17;;
25950;SDS011;13748;52.240;6.002;2022-10-29T01:32:04;31.63;;;9.93;;
25950;SDS011;13748;52.240;6.002;2022-10-29T01:37:46;28.10;;;9.10;;
25950;SDS011;13748;52.240;6.002;2022-10-29T01:40:40;28.90;;;9.87;;
25950;SDS011;13748;52.240;6.002;2022-10-29T01:43:37;29.60;;;8.50;;
25950;SDS011;13748;52.240;6.002;2022-10-29T01:46:11;19.40;;;7.90;;
25950;SDS011;13748;52.240;6.002;2022-10-29T01:48:43;29.97;;;10.23;;
25950;SDS011;13748;52.240;6.002;2022-10-29T01:51:18;31.33;;;10.13;;
25950;SDS011;13748;52.240;6.002;2022-10-29T01:53:47;24.97;;;9.93;;
25950;SDS011;13748;52.240;6.002;2022-10-29T01:56:15;25.90;;;8.90;;
25950;SDS011;13748;52.240;6.002;2022-10-29T01:58:43;27.23;;;9.83;;
25950;SDS011;13748;52.240;6.002;2022-10-29T02:04:21;29.63;;;9.47;;
25950;SDS011;13748;52.240;6.002;2022-10-29T02:07:16;28.03;;;9.30;;
25950;SDS011;13748;52.240;6.002;2022-10-29T02:12:53;31.37;;;8.90;;
25950;SDS011;13748;52.240;6.002;2022-10-29T02:15:36;20.73;;;8.00;;
25950;SDS011;13748;52.240;6.002;2022-10-29T02:18:10;31.77;;;9.30;;
25950;SDS011;13748;52.240;6.002;2022-10-29T02:20:41;36.77;;;9.97;;
25950;SDS011;13748;52.240;6.002;2022-10-29T02:23:13;26.77;;;8.80;;
25950;SDS011;13748;52.240;6.002;2022-10-29T02:25:40;31.37;;;8.70;;
25950;SDS011;13748;52.240;6.002;2022-10-29T02:28:08;30.40;;;9.63;;
25950;SDS011;13748;52.240;6.002;2022-10-29T02:30:39;33.27;;;8.90;;
25950;SDS011;13748;52.240;6.002;2022-10-29T02:33:06;32.97;;;9.70;;
25950;SDS011;13748;52.240;6.002;2022-10-29T02:35:33;35.13;;;9.80;;
25950;SDS011;13748;52.240;6.002;2022-10-29T02:37:59;25.70;;;8.97;;
25950;SDS011;13748;52.240;6.002;2022-10-29T02:40:32;27.17;;;8.60;;
25950;SDS011;13748;52.240;6.002;2022-10-29T02:43:04;28.40;;;9.90;;
25950;SDS011;13748;52.240;6.002;2022-10-29T02:45:31;40.13;;;10.37;;
25950;SDS011;13748;52.240;6.002;2022-10-29T02:47:58;35.63;;;10.83;;
25950;SDS011;13748;52.240;6.002;2022-10-29T02:50:26;34.33;;;10.43;;
25950;SDS011;13748;52.240;6.002;2022-10-29T02:52:53;21.13;;;8.70;;
25950;SDS011;13748;52.240;6.002;2022-10-29T02:55:21;25.50;;;8.70;;
25950;SDS011;13748;52.240;6.002;2022-10-29T02:57:48;27.93;;;9.43;;
25950;SDS011;13748;52.240;6.002;2022-10-29T03:00:15;24.07;;;9.40;;
25950;SDS011;13748;52.240;6.002;2022-10-29T03:02:42;29.63;;;9.30;;
25950;SDS011;13748;52.240;6.002;2022-10-29T03:05:09;25.87;;;8.90;;
25950;SDS011;13748;52.240;6.002;2022-10-29T03:07:37;27.03;;;9.40;;
25950;SDS011;13748;52.240;6.002;2022-10-29T03:10:05;30.30;;;9.80;;
25950;SDS011;13748;52.240;6.002;2022-10-29T03:12:33;24.33;;;9.90;;
25950;SDS011;13748;52.240;6.002;2022-10-29T03:14:59;24.90;;;9.57;;
25950;SDS011;13748;52.240;6.002;2022-10-29T03:17:26;25.50;;;9.90;;
25950;SDS011;13748;52.240;6.002;2022-10-29T03:19:57;21.47;;;9.27;;
25950;SDS011;13748;52.240;6.002;2022-10-29T03:22:24;24.70;;;11.03;;
25950;SDS011;13748;52.240;6.002;2022-10-29T03:24:52;30.43;;;11.30;;
25950;SDS011;13748;52.240;6.002;2022-10-29T03:27:19;25.67;;;10.30;;
25950;SDS011;13748;52.240;6.002;2022-10-29T03:29:46;24.23;;;9.73;;
25950;SDS011;13748;52.240;6.002;2022-10-29T03:32:19;37.93;;;11.37;;
25950;SDS011;13748;52.240;6.002;2022-10-29T03:34:47;23.37;;;10.27;;
25950;SDS011;13748;52.240;6.002;2022-10-29T03:37:15;27.50;;;11.10;;
25950;SDS011;13748;52.240;6.002;2022-10-29T03:39:41;23.30;;;10.57;;
25950;SDS011;13748;52.240;6.002;2022-10-29T03:42:08;22.83;;;9.77;;
25950;SDS011;13748;52.240;6.002;2022-10-29T03:47:06;29.03;;;10.97;;
25950;SDS011;13748;52.240;6.002;2022-10-29T03:49:34;27.87;;;12.17;;
25950;SDS011;13748;52.240;6.002;2022-10-29T03:52:01;26.67;;;12.03;;
25950;SDS011;13748;52.240;6.002;2022-10-29T03:54:28;28.47;;;11.73;;
25950;SDS011;13748;52.240;6.002;2022-10-29T03:56:54;31.33;;;12.30;;
25950;SDS011;13748;52.240;6.002;2022-10-29T03:59:21;40.63;;;12.07;;
25950;SDS011;13748;52.240;6.002;2022-10-29T04:01:48;36.77;;;12.93;;
25950;SDS011;13748;52.240;6.002;2022-10-29T04:04:18;35.47;;;13.10;;
25950;SDS011;13748;52.240;6.002;2022-10-29T04:06:49;46.67;;;15.60;;
25950;SDS011;13748;52.240;6.002;2022-10-29T04:09:18;41.00;;;14.63;;
25950;SDS011;13748;52.240;6.002;2022-10-29T04:11:44;42.00;;;15.93;;
25950;SDS011;13748;52.240;6.002;2022-10-29T04:14:14;44.17;;;16.63;;
25950;SDS011;13748;52.240;6.002;2022-10-29T04:16:42;45.40;;;16.63;;
25950;SDS011;13748;52.240;6.002;2022-10-29T04:19:15;51.27;;;17.67;;
25950;SDS011;13748;52.240;6.002;2022-10-29T04:21:41;44.13;;;16.07;;
25950;SDS011;13748;52.240;6.002;2022-10-29T04:24:28;41.43;;;16.03;;
25950;SDS011;13748;52.240;6.002;2022-10-29T04:27:15;40.10;;;17.30;;
25950;SDS011;13748;52.240;6.002;2022-10-29T04:30:02;42.70;;;16.97;;
25950;SDS011;13748;52.240;6.002;2022-10-29T04:32:29;38.43;;;16.60;;
25950;SDS011;13748;52.240;6.002;2022-10-29T04:35:03;43.50;;;17.40;;
25950;SDS011;13748;52.240;6.002;2022-10-29T04:37:36;40.40;;;16.00;;
25950;SDS011;13748;52.240;6.002;2022-10-29T04:40:05;41.10;;;18.13;;
25950;SDS011;13748;52.240;6.002;2022-10-29T04:42:39;38.83;;;17.23;;
25950;SDS011;13748;52.240;6.002;2022-10-29T04:45:08;33.27;;;16.10;;
25950;SDS011;13748;52.240;6.002;2022-10-29T04:50:04;53.10;;;18.93;;
25950;SDS011;13748;52.240;6.002;2022-10-29T04:52:31;42.57;;;17.87;;
25950;SDS011;13748;52.240;6.002;2022-10-29T04:54:58;41.97;;;18.40;;
25950;SDS011;13748;52.240;6.002;2022-10-29T04:57:28;50.47;;;19.03;;
25950;SDS011;13748;52.240;6.002;2022-10-29T04:59:58;55.47;;;17.97;;
25950;SDS011;13748;52.240;6.002;2022-10-29T05:02:25;78.87;;;19.73;;
25950;SDS011;13748;52.240;6.002;2022-10-29T05:04:52;42.73;;;17.40;;
25950;SDS011;13748;52.240;6.002;2022-10-29T05:07:18;52.80;;;18.57;;
25950;SDS011;13748;52.240;6.002;2022-10-29T05:09:45;48.17;;;19.10;;
25950;SDS011;13748;52.240;6.002;2022-10-29T05:12:12;53.47;;;18.53;;
25950;SDS011;13748;52.240;6.002;2022-10-29T05:14:38;61.97;;;18.93;;
25950;SDS011;13748;52.240;6.002;2022-10-29T05:17:05;56.80;;;19.20;;
25950;SDS011;13748;52.240;6.002;2022-10-29T05:19:37;56.67;;;20.23;;
25950;SDS011;13748;52.240;6.002;2022-10-29T05:22:04;37.87;;;17.47;;
25950;SDS011;13748;52.240;6.002;2022-10-29T05:24:31;39.60;;;18.30;;
25950;SDS011;13748;52.240;6.002;2022-10-29T05:27:03;40.17;;;18.90;;
25950;SDS011;13748;52.240;6.002;2022-10-29T05:29:33;40.27;;;18.63;;
25950;SDS011;13748;52.240;6.002;2022-10-29T05:34:37;41.10;;;17.57;;
25950;SDS011;13748;52.240;6.002;2022-10-29T05:37:11;39.93;;;18.03;;
25950;SDS011;13748;52.240;6.002;2022-10-29T05:39:41;52.63;;;19.73;;
25950;SDS011;13748;52.240;6.002;2022-10-29T05:42:07;90.77;;;22.23;;
25950;SDS011;13748;52.240;6.002;2022-10-29T05:44:34;41.97;;;18.30;;
25950;SDS011;13748;52.240;6.002;2022-10-29T05:47:01;55.43;;;17.67;;
25950;SDS011;13748;52.240;6.002;2022-10-29T05:49:28;51.70;;;17.40;;
25950;SDS011;13748;52.240;6.002;2022-10-29T05:51:55;67.97;;;21.93;;
25950;SDS011;13748;52.240;6.002;2022-10-29T05:54:22;62.80;;;20.33;;
25950;SDS011;13748;52.240;6.002;2022-10-29T05:56:49;61.43;;;21.33;;
25950;SDS011;13748;52.240;6.002;2022-10-29T05:59:15;56.97;;;20.77;;
25950;SDS011;13748;52.240;6.002;2022-10-29T06:01:45;45.50;;;20.07;;
25950;SDS011;13748;52.240;6.002;2022-10-29T06:04:12;42.53;;;20.40;;
25950;SDS011;13748;52.240;6.002;2022-10-29T06:06:39;49.10;;;20.77;;
25950;SDS011;13748;52.240;6.002;2022-10-29T06:09:06;44.77;;;22.00;;
25950;SDS011;13748;52.240;6.002;2022-10-29T06:11:32;40.40;;;20.00;;
25950;SDS011;13748;52.240;6.002;2022-10-29T06:14:00;37.20;;;19.83;;
25950;SDS011;13748;52.240;6.002;2022-10-29T06:16:30;34.23;;;19.10;;
25950;SDS011;13748;52.240;6.002;2022-10-29T06:18:57;33.40;;;19.00;;
25950;SDS011;13748;52.240;6.002;2022-10-29T06:21:24;35.40;;;18.33;;
25950;SDS011;13748;52.240;6.002;2022-10-29T06:23:51;28.03;;;17.17;;
25950;SDS011;13748;52.240;6.002;2022-10-29T06:26:19;29.47;;;17.60;;
25950;SDS011;13748;52.240;6.002;2022-10-29T06:28:49;30.97;;;17.53;;
25950;SDS011;13748;52.240;6.002;2022-10-29T06:31:17;33.20;;;18.77;;
25950;SDS011;13748;52.240;6.002;2022-10-29T06:33:47;33.73;;;19.03;;
25950;SDS011;13748;52.240;6.002;2022-10-29T06:36:17;31.50;;;18.33;;
25950;SDS011;13748;52.240;6.002;2022-10-29T06:38:44;31.63;;;18.57;;
25950;SDS011;13748;52.240;6.002;2022-10-29T06:41:11;34.13;;;18.47;;
25950;SDS011;13748;52.240;6.002;2022-10-29T06:43:38;35.80;;;18.33;;
25950;SDS011;13748;52.240;6.002;2022-10-29T06:46:06;36.57;;;19.20;;
25950;SDS011;13748;52.240;6.002;2022-10-29T06:48:33;39.33;;;19.83;;
25950;SDS011;13748;52.240;6.002;2022-10-29T06:51:02;43.10;;;21.07;;
25950;SDS011;13748;52.240;6.002;2022-10-29T06:53:29;35.17;;;19.60;;
25950;SDS011;13748;52.240;6.002;2022-10-29T06:55:57;41.83;;;22.07;;
25950;SDS011;13748;52.240;6.002;2022-10-29T06:58:25;42.33;;;21.07;;
25950;SDS011;13748;52.240;6.002;2022-10-29T07:00:53;43.80;;;21.93;;
25950;SDS011;13748;52.240;6.002;2022-10-29T07:03:21;47.23;;;22.70;;
25950;SDS011;13748;52.240;6.002;2022-10-29T07:05:53;45.23;;;22.17;;
25950;SDS011;13748;52.240;6.002;2022-10-29T07:08:36;38.77;;;22.50;;
25950;SDS011;13748;52.240;6.002;2022-10-29T07:11:03;36.60;;;21.13;;
25950;SDS011;13748;52.240;6.002;2022-10-29T07:13:30;35.73;;;19.93;;
25950;SDS011;13748;52.240;6.002;2022-10-29T07:15:57;33.27;;;19.23;;
25950;SDS011;13748;52.240;6.002;2022-10-29T07:18:24;44.17;;;21.00;;
25950;SDS011;13748;52.240;6.002;2022-10-29T07:20:51;35.00;;;19.43;;
25950;SDS011;13748;52.240;6.002;2022-10-29T07:23:18;34.83;;;19.57;;
25950;SDS011;13748;52.240;6.002;2022-10-29T07:25:51;37.33;;;20.80;;
25950;SDS011;13748;52.240;6.002;2022-10-29T07:28:20;37.80;;;19.87;;
25950;SDS011;13748;52.240;6.002;2022-10-29T07:30:49;37.73;;;21.17;;
25950;SDS011;13748;52.240;6.002;2022-10-29T07:33:17;41.30;;;21.90;;
25950;SDS011;13748;52.240;6.002;2022-10-29T07:35:45;41.23;;;23.20;;
25950;SDS011;13748;52.240;6.002;2022-10-29T07:38:13;46.70;;;25.17;;
25950;SDS011;13748;52.240;6.002;2022-10-29T07:40:45;44.37;;;25.20;;
25950;SDS011;13748;52.240;6.002;2022-10-29T07:43:13;47.33;;;24.57;;
25950;SDS011;13748;52.240;6.002;2022-10-29T07:45:41;45.60;;;25.03;;
25950;SDS011;13748;52.240;6.002;2022-10-29T07:48:10;47.10;;;24.63;;
25950;SDS011;13748;52.240;6.002;2022-10-29T07:50:37;47.90;;;24.93;;
25950;SDS011;13748;52.240;6.002;2022-10-29T07:53:08;49.00;;;24.77;;
25950;SDS011;13748;52.240;6.002;2022-10-29T07:55:35;51.53;;;25.63;;
25950;SDS011;13748;52.240;6.002;2022-10-29T07:58:04;47.33;;;25.13;;
25950;SDS011;13748;52.240;6.002;2022-10-29T08:00:34;41.07;;;23.77;;
25950;SDS011;13748;52.240;6.002;2022-10-29T08:03:03;49.87;;;24.63;;
25950;SDS011;13748;52.240;6.002;2022-10-29T08:05:30;44.20;;;24.13;;
25950;SDS011;13748;52.240;6.002;2022-10-29T08:07:57;47.13;;;25.13;;
25950;SDS011;13748;52.240;6.002;2022-10-29T08:10:29;46.83;;;25.70;;
25950;SDS011;13748;52.240;6.002;2022-10-29T08:13:00;49.97;;;24.13;;
25950;SDS011;13748;52.240;6.002;2022-10-29T08:15:29;42.57;;;25.17;;
25950;SDS011;13748;52.240;6.002;2022-10-29T08:17:57;45.57;;;25.37;;
25950;SDS011;13748;52.240;6.002;2022-10-29T08:20:26;49.80;;;26.97;;
25950;SDS011;13748;52.240;6.002;2022-10-29T08:22:57;49.38;;;25.63;;
25950;SDS011;13748;52.240;6.002;2022-10-29T08:25:26;44.63;;;25.57;;
25950;SDS011;13748;52.240;6.002;2022-10-29T08:27:57;40.10;;;23.93;;
25950;SDS011;13748;52.240;6.002;2022-10-29T08:30:31;41.17;;;25.55;;
25950;SDS011;13748;52.240;6.002;2022-10-29T08:32:58;44.70;;;26.02;;
25950;SDS011;13748;52.240;6.002;2022-10-29T08:35:26;42.95;;;25.17;;
25950;SDS011;13748;52.240;6.002;2022-10-29T08:37:54;42.63;;;25.48;;
25950;SDS011;13748;52.240;6.002;2022-10-29T08:43:02;41.65;;;25.48;;
25950;SDS011;13748;52.240;6.002;2022-10-29T08:45:50;48.47;;;25.98;;
25950;SDS011;13748;52.240;6.002;2022-10-29T08:53:42;41.00;;;25.52;;
25950;SDS011;13748;52.240;6.002;2022-10-29T08:56:35;46.28;;;25.27;;
25950;SDS011;13748;52.240;6.002;2022-10-29T08:59:20;56.28;;;27.08;;
25950;SDS011;13748;52.240;6.002;2022-10-29T09:01:49;39.92;;;25.60;;
25950;SDS011;13748;52.240;6.002;2022-10-29T09:04:25;43.03;;;25.23;;
25950;SDS011;13748;52.240;6.002;2022-10-29T09:09:35;40.35;;;23.77;;
25950;SDS011;13748;52.240;6.002;2022-10-29T09:15:10;43.13;;;24.20;;
25950;SDS011;13748;52.240;6.002;2022-10-29T09:23:02;40.33;;;24.02;;
25950;SDS011;13748;52.240;6.002;2022-10-29T09:26:02;35.92;;;22.58;;
25950;SDS011;13748;52.240;6.002;2022-10-29T09:34:28;35.20;;;19.90;;
25950;SDS011;13748;52.240;6.002;2022-10-29T09:37:26;33.72;;;20.73;;
25950;SDS011;13748;52.240;6.002;2022-10-29T09:40:22;33.75;;;19.60;;
25950;SDS011;13748;52.240;6.002;2022-10-29T09:42:59;28.80;;;18.75;;
25950;SDS011;13748;52.240;6.002;2022-10-29T09:45:43;31.58;;;18.75;;
25950;SDS011;13748;52.240;6.002;2022-10-29T09:48:34;30.77;;;16.88;;
25950;SDS011;13748;52.240;6.002;2022-10-29T09:54:08;27.75;;;16.60;;
25950;SDS011;13748;52.240;6.002;2022-10-29T09:56:37;33.63;;;17.17;;
25950;SDS011;13748;52.240;6.002;2022-10-29T09:59:11;31.08;;;17.65;;
25950;SDS011;13748;52.240;6.002;2022-10-29T10:01:47;31.70;;;16.88;;
25950;SDS011;13748;52.240;6.002;2022-10-29T10:04:47;30.48;;;17.10;;
25950;SDS011;13748;52.240;6.002;2022-10-29T10:07:11;32.28;;;17.35;;
25950;SDS011;13748;52.240;6.002;2022-10-29T10:09:49;27.77;;;16.20;;
25950;SDS011;13748;52.240;6.002;2022-10-29T10:12:21;27.13;;;15.75;;
25950;SDS011;13748;52.240;6.002;2022-10-29T10:15:00;28.60;;;17.08;;
25950;SDS011;13748;52.240;6.002;2022-10-29T10:17:38;31.95;;;17.50;;
25950;SDS011;13748;52.240;6.002;2022-10-29T10:22:53;29.70;;;16.15;;
25950;SDS011;13748;52.240;6.002;2022-10-29T10:25:39;25.73;;;16.33;;
25950;SDS011;13748;52.240;6.002;2022-10-29T10:28:14;27.85;;;16.75;;
25950;SDS011;13748;52.240;6.002;2022-10-29T10:31:03;26.85;;;15.23;;
25950;SDS011;13748;52.240;6.002;2022-10-29T10:33:31;30.92;;;15.23;;
25950;SDS011;13748;52.240;6.002;2022-10-29T10:36:00;24.65;;;15.13;;
25950;SDS011;13748;52.240;6.002;2022-10-29T10:38:43;24.48;;;14.73;;
25950;SDS011;13748;52.240;6.002;2022-10-29T10:41:13;24.02;;;14.30;;
25950;SDS011;13748;52.240;6.002;2022-10-29T10:43:42;22.00;;;14.98;;
25950;SDS011;13748;52.240;6.002;2022-10-29T10:46:20;27.05;;;14.38;;
25950;SDS011;13748;52.240;6.002;2022-10-29T10:48:58;26.30;;;14.27;;
25950;SDS011;13748;52.240;6.002;2022-10-29T10:51:41;25.23;;;14.32;;
25950;SDS011;13748;52.240;6.002;2022-10-29T10:59:29;28.63;;;14.95;;
25950;SDS011;13748;52.240;6.002;2022-10-29T11:02:20;24.58;;;13.63;;
25950;SDS011;13748;52.240;6.002;2022-10-29T11:10:39;28.88;;;16.02;;
25950;SDS011;13748;52.240;6.002;2022-10-29T11:13:29;26.02;;;14.13;;
25950;SDS011;13748;52.240;6.002;2022-10-29T11:16:19;26.65;;;14.25;;
25950;SDS011;13748;52.240;6.002;2022-10-29T11:19:00;25.27;;;14.85;;
25950;SDS011;13748;52.240;6.002;2022-10-29T11:21:37;24.45;;;14.05;;
25950;SDS011;13748;52.240;6.002;2022-10-29T11:26:58;25.35;;;12.80;;
25950;SDS011;13748;52.240;6.002;2022-10-29T11:35:11;22.48;;;13.00;;
25950;SDS011;13748;52.240;6.002;2022-10-29T11:37:56;22.10;;;12.82;;
25950;SDS011;13748;52.240;6.002;2022-10-29T11:43:17;21.83;;;12.40;;
25950;SDS011;13748;52.240;6.002;2022-10-29T11:48:34;22.52;;;12.25;;
25950;SDS011;13748;52.240;6.002;2022-10-29T11:51:36;22.35;;;11.43;;
25950;SDS011;13748;52.240;6.002;2022-10-29T12:02:57;22.05;;;11.82;;
25950;SDS011;13748;52.240;6.002;2022-10-29T12:06:00;20.73;;;10.70;;
25950;SDS011;13748;52.240;6.002;2022-10-29T12:08:49;19.92;;;10.88;;
25950;SDS011;13748;52.240;6.002;2022-10-29T12:11:40;21.75;;;10.35;;
25950;SDS011;13748;52.240;6.002;2022-10-29T12:14:40;18.25;;;10.65;;
25950;SDS011;13748;52.240;6.002;2022-10-29T12:24:58;21.95;;;11.20;;
25950;SDS011;13748;52.240;6.002;2022-10-29T12:30:13;18.77;;;10.63;;
25950;SDS011;13748;52.240;6.002;2022-10-29T12:35:32;22.45;;;10.40;;
25950;SDS011;13748;52.240;6.002;2022-10-29T12:40:32;19.83;;;10.05;;
25950;SDS011;13748;52.240;6.002;2022-10-29T12:43:04;19.80;;;9.35;;
25950;SDS011;13748;52.240;6.002;2022-10-29T12:45:43;18.60;;;9.27;;
25950;SDS011;13748;52.240;6.002;2022-10-29T12:54:42;17.85;;;9.60;;
25950;SDS011;13748;52.240;6.002;2022-10-29T12:59:42;16.42;;;9.73;;
25950;SDS011;13748;52.240;6.002;2022-10-29T13:15:38;17.40;;;7.57;;
25950;SDS011;13748;52.240;6.002;2022-10-29T13:20:38;14.55;;;7.80;;
25950;SDS011;13748;52.240;6.002;2022-10-29T13:23:34;18.40;;;8.13;;
25950;SDS011;13748;52.240;6.002;2022-10-29T13:26:03;17.70;;;7.88;;
25950;SDS011;13748;52.240;6.002;2022-10-29T13:41:37;19.35;;;8.07;;
25950;SDS011;13748;52.240;6.002;2022-10-29T13:44:10;13.82;;;7.68;;
25950;SDS011;13748;52.240;6.002;2022-10-29T13:49:12;16.27;;;7.82;;
25950;SDS011;13748;52.240;6.002;2022-10-29T13:54:47;16.35;;;7.97;;
25950;SDS011;13748;52.240;6.002;2022-10-29T13:58:05;17.35;;;7.68;;
25950;SDS011;13748;52.240;6.002;2022-10-29T14:00:26;14.68;;;7.45;;
25950;SDS011;13748;52.240;6.002;2022-10-29T14:03:01;15.65;;;7.97;;
25950;SDS011;13748;52.240;6.002;2022-10-29T14:05:41;19.33;;;8.40;;
25950;SDS011;13748;52.240;6.002;2022-10-29T14:18:33;14.35;;;7.38;;
25950;SDS011;13748;52.240;6.002;2022-10-29T14:21:05;19.05;;;8.13;;
25950;SDS011;13748;52.240;6.002;2022-10-29T14:23:37;18.52;;;7.88;;
25950;SDS011;13748;52.240;6.002;2022-10-29T14:26:13;14.40;;;8.00;;
25950;SDS011;13748;52.240;6.002;2022-10-29T14:28:41;18.50;;;8.50;;
25950;SDS011;13748;52.240;6.002;2022-10-29T14:31:12;19.60;;;7.57;;
25950;SDS011;13748;52.240;6.002;2022-10-29T14:33:43;15.38;;;7.32;;
25950;SDS011;13748;52.240;6.002;2022-10-29T14:38:52;19.17;;;7.38;;
25950;SDS011;13748;52.240;6.002;2022-10-29T14:41:23;18.25;;;8.00;;
25950;SDS011;13748;52.240;6.002;2022-10-29T14:43:52;18.00;;;7.45;;
25950;SDS011;13748;52.240;6.002;2022-10-29T14:46:41;19.95;;;7.93;;
25950;SDS011;13748;52.240;6.002;2022-10-29T14:51:49;18.95;;;8.27;;
25950;SDS011;13748;52.240;6.002;2022-10-29T14:54:22;15.82;;;7.63;;
25950;SDS011;13748;52.240;6.002;2022-10-29T14:57:00;17.10;;;8.90;;
25950;SDS011;13748;52.240;6.002;2022-10-29T14:59:31;15.27;;;8.13;;
25950;SDS011;13748;52.240;6.002;2022-10-29T15:02:00;13.15;;;7.97;;
25950;SDS011;13748;52.240;6.002;2022-10-29T15:04:56;15.85;;;7.90;;
25950;SDS011;13748;52.240;6.002;2022-10-29T15:07:33;18.70;;;8.07;;
25950;SDS011;13748;52.240;6.002;2022-10-29T15:10:23;14.65;;;7.90;;
25950;SDS011;13748;52.240;6.002;2022-10-29T15:12:50;19.77;;;8.93;;
25950;SDS011;13748;52.240;6.002;2022-10-29T15:17:57;17.02;;;8.23;;
25950;SDS011;13748;52.240;6.002;2022-10-29T15:20:31;15.75;;;8.50;;
25950;SDS011;13748;52.240;6.002;2022-10-29T15:23:02;19.55;;;8.32;;
25950;SDS011;13748;52.240;6.002;2022-10-29T15:25:35;17.90;;;7.97;;
25950;SDS011;13748;52.240;6.002;2022-10-29T15:28:07;18.60;;;8.52;;
25950;SDS011;13748;52.240;6.002;2022-10-29T15:30:36;19.90;;;9.02;;
25950;SDS011;13748;52.240;6.002;2022-10-29T15:33:05;16.52;;;9.50;;
25950;SDS011;13748;52.240;6.002;2022-10-29T15:35:43;16.98;;;7.93;;
25950;SDS011;13748;52.240;6.002;2022-10-29T15:43:34;19.50;;;8.85;;
25950;SDS011;13748;52.240;6.002;2022-10-29T15:46:23;15.45;;;9.23;;
25950;SDS011;13748;52.240;6.002;2022-10-29T15:48:52;18.88;;;9.38;;
25950;SDS011;13748;52.240;6.002;2022-10-29T15:51:21;17.92;;;9.32;;
25950;SDS011;13748;52.240;6.002;2022-10-29T15:53:51;15.80;;;8.93;;
25950;SDS011;13748;52.240;6.002;2022-10-29T15:56:24;18.08;;;9.88;;
25950;SDS011;13748;52.240;6.002;2022-10-29T15:58:51;20.55;;;9.90;;
25950;SDS011;13748;52.240;6.002;2022-10-29T16:01:18;18.52;;;9.52;;
25950;SDS011;13748;52.240;6.002;2022-10-29T16:03:47;17.88;;;8.98;;
25950;SDS011;13748;52.240;6.002;2022-10-29T16:06:14;17.08;;;9.27;;
25950;SDS011;13748;52.240;6.002;2022-10-29T16:11:13;21.33;;;10.05;;
25950;SDS011;13748;52.240;6.002;2022-10-29T16:13:41;18.40;;;9.98;;
25950;SDS011;13748;52.240;6.002;2022-10-29T16:16:15;23.08;;;11.40;;
25950;SDS011;13748;52.240;6.002;2022-10-29T16:18:44;19.88;;;9.82;;
25950;SDS011;13748;52.240;6.002;2022-10-29T16:21:18;17.35;;;9.70;;
25950;SDS011;13748;52.240;6.002;2022-10-29T16:23:47;19.10;;;9.55;;
25950;SDS011;13748;52.240;6.002;2022-10-29T16:26:15;21.48;;;10.27;;
25950;SDS011;13748;52.240;6.002;2022-10-29T16:28:43;24.63;;;10.07;;
25950;SDS011;13748;52.240;6.002;2022-10-29T16:31:20;20.65;;;11.82;;
25950;SDS011;13748;52.240;6.002;2022-10-29T16:33:48;21.25;;;10.48;;
25950;SDS011;13748;52.240;6.002;2022-10-29T16:36:17;18.27;;;10.98;;
25950;SDS011;13748;52.240;6.002;2022-10-29T16:38:44;24.27;;;10.15;;
25950;SDS011;13748;52.240;6.002;2022-10-29T16:41:11;26.45;;;10.93;;
25950;SDS011;13748;52.240;6.002;2022-10-29T16:43:42;25.40;;;11.25;;
25950;SDS011;13748;52.240;6.002;2022-10-29T16:46:10;19.02;;;10.82;;
25950;SDS011;13748;52.240;6.002;2022-10-29T16:48:37;26.13;;;10.95;;
25950;SDS011;13748;52.240;6.002;2022-10-29T16:51:05;21.23;;;11.30;;
25950;SDS011;13748;52.240;6.002;2022-10-29T16:53:32;19.20;;;10.88;;
25950;SDS011;13748;52.240;6.002;2022-10-29T16:55:59;21.80;;;11.68;;
25950;SDS011;13748;52.240;6.002;2022-10-29T16:58:27;24.67;;;10.18;;
25950;SDS011;13748;52.240;6.002;2022-10-29T17:01:00;23.90;;;11.38;;
25950;SDS011;13748;52.240;6.002;2022-10-29T17:03:31;23.73;;;10.95;;
25950;SDS011;13748;52.240;6.002;2022-10-29T17:06:02;20.90;;;11.02;;
25950;SDS011;13748;52.240;6.002;2022-10-29T17:08:35;28.55;;;11.90;;
25950;SDS011;13748;52.240;6.002;2022-10-29T17:11:03;21.23;;;10.23;;
25950;SDS011;13748;52.240;6.002;2022-10-29T17:13:32;19.77;;;11.05;;
25950;SDS011;13748;52.240;6.002;2022-10-29T17:15:59;25.92;;;12.05;;
25950;SDS011;13748;52.240;6.002;2022-10-29T17:18:30;20.08;;;11.00;;
25950;SDS011;13748;52.240;6.002;2022-10-29T17:20:58;16.83;;;10.18;;
25950;SDS011;13748;52.240;6.002;2022-10-29T17:23:26;23.70;;;11.80;;
25950;SDS011;13748;52.240;6.002;2022-10-29T17:25:54;17.65;;;10.95;;
25950;SDS011;13748;52.240;6.002;2022-10-29T17:28:23;21.48;;;11.13;;
25950;SDS011;13748;52.240;6.002;2022-10-29T17:30:51;21.25;;;11.05;;
25950;SDS011;13748;52.240;6.002;2022-10-29T17:33:18;23.50;;;11.23;;
25950;SDS011;13748;52.240;6.002;2022-10-29T17:35:45;25.00;;;12.02;;
25950;SDS011;13748;52.240;6.002;2022-10-29T17:38:12;24.98;;;12.15;;
25950;SDS011;13748;52.240;6.002;2022-10-29T17:40:39;26.45;;;12.18;;
25950;SDS011;13748;52.240;6.002;2022-10-29T17:43:09;21.42;;;11.77;;
25950;SDS011;13748;52.240;6.002;2022-10-29T17:45:35;24.70;;;11.80;;
25950;SDS011;13748;52.240;6.002;2022-10-29T17:48:02;18.38;;;11.90;;
25950;SDS011;13748;52.240;6.002;2022-10-29T17:50:29;23.90;;;13.13;;
25950;SDS011;13748;52.240;6.002;2022-10-29T17:52:56;27.63;;;12.93;;
25950;SDS011;13748;52.240;6.002;2022-10-29T17:55:23;25.00;;;12.32;;
25950;SDS011;13748;52.240;6.002;2022-10-29T17:57:50;19.48;;;11.30;;
25950;SDS011;13748;52.240;6.002;2022-10-29T18:00:17;25.50;;;12.65;;